sensor_id;sensor_type;location;lat;lon;timestamp;pressure;altitude;pressure_sealevel;temperature;humidity
50103;BME280;35993;52.604;10.078;2023-01-27T00:00:02;101892.59;;;1.98;100.00
50103;BME280;35993;52.604;10.078;2023-01-27T00:02:39;101888.94;;;1.99;100.00
50103;BME280;35993;52.604;10.078;2023-01-27T00:05:06;101895.56;;;1.95;100.00
50103;BME280;35993;52.604;10.078;2023-01-27T00:07:32;101893.59;;;1.97;100.00
50103;BME280;35993;52.604;10.078;2023-01-27T00:09:58;101888.09;;;1.99;100.00
50103;BME280;35993;52.604;10.078;2023-01-27T00:12:25;101890.78;;;1.99;100.00
50103;BME280;35993;52.604;10.078;2023-01-27T00:15:11;101885.88;;;2.04;100.00
50103;BME280;35993;52.604;10.078;2023-01-27T00:17:37;101886.13;;;2.01;100.00
50103;BME280;35993;52.604;10.078;2023-01-27T00:20:03;101885.16;;;2.02;100.00
50103;BME280;35993;52.604;10.078;2023-01-27T00:22:29;101873.75;;;2.00;100.00
50103;BME280;35993;52.604;10.078;2023-01-27T00:25:12;101885.75;;;2.05;100.00
50103;BME280;35993;52.604;10.078;2023-01-27T00:27:38;101885.59;;;2.07;100.00
50103;BME280;35993;52.604;10.078;2023-01-27T00:30:05;101883.44;;;2.01;100.00
50103;BME280;35993;52.604;10.078;2023-01-27T00:32:31;101882.47;;;2.02;100.00
50103;BME280;35993;52.604;10.078;2023-01-27T00:35:15;101881.31;;;1.94;100.00
50103;BME280;35993;52.604;10.078;2023-01-27T00:37:45;101889.22;;;1.96;100.00
50103;BME280;35993;52.604;10.078;2023-01-27T00:40:13;101886.78;;;1.93;100.00
50103;BME280;35993;52.604;10.078;2023-01-27T00:42:39;101895.56;;;1.95;100.00
50103;BME280;35993;52.604;10.078;2023-01-27T00:45:05;101893.84;;;1.94;100.00
50103;BME280;35993;52.604;10.078;2023-01-27T00:47:50;101891.91;;;1.96;100.00
50103;BME280;35993;52.604;10.078;2023-01-27T00:50:16;101893.47;;;1.99;100.00
50103;BME280;35993;52.604;10.078;2023-01-27T00:52:43;101892.16;;;1.93;100.00
50103;BME280;35993;52.604;10.078;2023-01-27T00:55:10;101899.03;;;1.86;100.00
50103;BME280;35993;52.604;10.078;2023-01-27T00:57:36;101906.91;;;1.87;100.00
50103;BME280;35993;52.604;10.078;2023-01-27T01:00:03;101907.38;;;1.92;100.00
50103;BME280;35993;52.604;10.078;2023-01-27T01:02:29;101907.25;;;1.94;100.00
50103;BME280;35993;52.604;10.078;2023-01-27T01:04:55;101912.13;;;1.89;100.00
50103;BME280;35993;52.604;10.078;2023-01-27T01:07:20;101916.38;;;1.91;100.00
50103;BME280;35993;52.604;10.078;2023-01-27T01:09:46;101915.28;;;1.94;100.00
50103;BME280;35993;52.604;10.078;2023-01-27T01:12:11;101921.81;;;2.01;100.00
50103;BME280;35993;52.604;10.078;2023-01-27T01:14:37;101921.97;;;2.00;100.00
50103;BME280;35993;52.604;10.078;2023-01-27T01:17:02;101922.94;;;1.99;100.00
50103;BME280;35993;52.604;10.078;2023-01-27T01:19:29;101926.44;;;1.99;100.00
50103;BME280;35993;52.604;10.078;2023-01-27T01:21:55;101930.44;;;2.05;100.00
50103;BME280;35993;52.604;10.078;2023-01-27T01:24:20;101928.00;;;2.02;100.00
50103;BME280;35993;52.604;10.078;2023-01-27T01:26:46;101934.78;;;2.06;100.00
50103;BME280;35993;52.604;10.078;2023-01-27T01:29:12;101936.97;;;2.12;100.00
50103;BME280;35993;52.604;10.078;2023-01-27T01:31:37;101941.34;;;2.13;100.00
50103;BME280;35993;52.604;10.078;2023-01-27T01:34:03;101944.84;;;2.13;100.00
50103;BME280;35993;52.604;10.078;2023-01-27T01:36:29;101946.41;;;2.16;100.00
50103;BME280;35993;52.604;10.078;2023-01-27T01:38:55;101942.78;;;2.17;100.00
50103;BME280;35993;52.604;10.078;2023-01-27T01:41:23;101941.78;;;2.18;100.00
50103;BME280;35993;52.604;10.078;2023-01-27T01:43:50;101937.41;;;2.17;100.00
50103;BME280;35993;52.604;10.078;2023-01-27T01:46:16;101944.22;;;2.21;100.00
50103;BME280;35993;52.604;10.078;2023-01-27T01:49:02;101935.06;;;2.24;100.00
50103;BME280;35993;52.604;10.078;2023-01-27T01:51:34;101932.97;;;2.27;100.00
50103;BME280;35993;52.604;10.078;2023-01-27T01:54:08;101945.38;;;2.28;100.00
50103;BME280;35993;52.604;10.078;2023-01-27T01:59:11;101934.34;;;2.22;100.00
50103;BME280;35993;52.604;10.078;2023-01-27T02:01:39;101938.59;;;2.24;100.00
50103;BME280;35993;52.604;10.078;2023-01-27T02:04:10;101940.88;;;2.29;100.00
50103;BME280;35993;52.604;10.078;2023-01-27T02:06:46;101935.59;;;2.18;100.00
50103;BME280;35993;52.604;10.078;2023-01-27T02:09:14;101938.72;;;2.23;100.00
50103;BME280;35993;52.604;10.078;2023-01-27T02:11:41;101939.19;;;2.28;100.00
50103;BME280;35993;52.604;10.078;2023-01-27T02:14:09;101942.56;;;2.30;100.00
50103;BME280;35993;52.604;10.078;2023-01-27T02:16:35;101934.41;;;2.32;100.00
50103;BME280;35993;52.604;10.078;2023-01-27T02:19:02;101937.34;;;2.28;100.00
50103;BME280;35993;52.604;10.078;2023-01-27T02:21:27;101934.81;;;2.27;100.00
50103;BME280;35993;52.604;10.078;2023-01-27T02:23:58;101936.22;;;2.31;100.00
50103;BME280;35993;52.604;10.078;2023-01-27T02:26:35;101928.03;;;2.33;100.00
50103;BME280;35993;52.604;10.078;2023-01-27T02:29:20;101933.41;;;2.33;100.00
50103;BME280;35993;52.604;10.078;2023-01-27T02:31:48;101933.84;;;2.38;100.00
50103;BME280;35993;52.604;10.078;2023-01-27T02:34:16;101941.78;;;2.39;100.00
50103;BME280;35993;52.604;10.078;2023-01-27T02:37:06;101939.81;;;2.41;100.00
50103;BME280;35993;52.604;10.078;2023-01-27T02:39:35;101928.50;;;2.38;100.00
50103;BME280;35993;52.604;10.078;2023-01-27T02:42:06;101935.69;;;2.37;100.00
50103;BME280;35993;52.604;10.078;2023-01-27T02:44:33;101936.28;;;2.41;100.00
50103;BME280;35993;52.604;10.078;2023-01-27T02:47:01;101938.84;;;2.42;100.00
50103;BME280;35993;52.604;10.078;2023-01-27T02:49:27;101940.25;;;2.46;100.00
50103;BME280;35993;52.604;10.078;2023-01-27T02:51:52;101942.50;;;2.41;100.00
50103;BME280;35993;52.604;10.078;2023-01-27T02:54:18;101945.03;;;2.43;100.00
50103;BME280;35993;52.604;10.078;2023-01-27T02:56:43;101954.78;;;2.44;100.00
50103;BME280;35993;52.604;10.078;2023-01-27T02:59:13;101958.56;;;2.41;100.00
50103;BME280;35993;52.604;10.078;2023-01-27T03:01:40;101945.63;;;2.46;100.00
50103;BME280;35993;52.604;10.078;2023-01-27T03:04:07;101959.47;;;2.52;100.00
50103;BME280;35993;52.604;10.078;2023-01-27T03:06:34;101960.19;;;2.54;100.00
50103;BME280;35993;52.604;10.078;2023-01-27T03:09:00;101963.59;;;2.56;100.00
50103;BME280;35993;52.604;10.078;2023-01-27T03:11:26;101967.97;;;2.57;100.00
50103;BME280;35993;52.604;10.078;2023-01-27T03:14:10;101969.94;;;2.55;100.00
50103;BME280;35993;52.604;10.078;2023-01-27T03:16:38;101966.41;;;2.54;100.00
50103;BME280;35993;52.604;10.078;2023-01-27T03:19:22;101966.28;;;2.56;100.00
50103;BME280;35993;52.604;10.078;2023-01-27T03:21:48;101964.31;;;2.58;100.00
50103;BME280;35993;52.604;10.078;2023-01-27T03:24:19;101964.16;;;2.59;100.00
50103;BME280;35993;52.604;10.078;2023-01-27T03:26:45;101964.16;;;2.59;100.00
50103;BME280;35993;52.604;10.078;2023-01-27T03:29:13;101962.06;;;2.63;100.00
50103;BME280;35993;52.604;10.078;2023-01-27T03:31:57;101963.91;;;2.62;100.00
50103;BME280;35993;52.604;10.078;2023-01-27T03:34:23;101962.06;;;2.63;100.00
50103;BME280;35993;52.604;10.078;2023-01-27T03:36:52;101965.72;;;2.62;100.00
50103;BME280;35993;52.604;10.078;2023-01-27T03:39:36;101958.56;;;2.62;100.00
50103;BME280;35993;52.604;10.078;2023-01-27T03:42:21;101956.56;;;2.65;100.00
50103;BME280;35993;52.604;10.078;2023-01-27T03:45:06;101963.50;;;2.67;100.00
50103;BME280;35993;52.604;10.078;2023-01-27T03:47:51;101957.28;;;2.67;100.00
50103;BME280;35993;52.604;10.078;2023-01-27T03:50:16;101973.22;;;2.68;100.00
50103;BME280;35993;52.604;10.078;2023-01-27T03:52:49;101973.09;;;2.70;100.00
50103;BME280;35993;52.604;10.078;2023-01-27T03:55:31;101976.50;;;2.72;100.00
50103;BME280;35993;52.604;10.078;2023-01-27T03:57:57;101973.09;;;2.70;100.00
50103;BME280;35993;52.604;10.078;2023-01-27T04:00:39;101972.84;;;2.73;100.00
50103;BME280;35993;52.604;10.078;2023-01-27T04:03:04;101977.34;;;2.72;100.00
50103;BME280;35993;52.604;10.078;2023-01-27T04:05:50;101978.22;;;2.73;100.00
50103;BME280;35993;52.604;10.078;2023-01-27T04:08:41;101980.75;;;2.74;100.00
50103;BME280;35993;52.604;10.078;2023-01-27T04:11:06;101984.28;;;2.75;100.00
50103;BME280;35993;52.604;10.078;2023-01-27T04:13:50;101988.66;;;2.76;100.00
50103;BME280;35993;52.604;10.078;2023-01-27T04:16:16;101983.03;;;2.79;100.00
50103;BME280;35993;52.604;10.078;2023-01-27T04:18:45;101991.19;;;2.77;100.00
50103;BME280;35993;52.604;10.078;2023-01-27T04:21:12;101991.78;;;2.81;100.00
50103;BME280;35993;52.604;10.078;2023-01-27T04:23:38;101996.31;;;2.81;100.00
50103;BME280;35993;52.604;10.078;2023-01-27T04:26:03;101997.88;;;2.83;100.00
50103;BME280;35993;52.604;10.078;2023-01-27T04:28:29;101996.16;;;2.82;100.00
50103;BME280;35993;52.604;10.078;2023-01-27T04:30:54;101998.72;;;2.84;100.00
50103;BME280;35993;52.604;10.078;2023-01-27T04:33:20;101999.44;;;2.86;100.00
50103;BME280;35993;52.604;10.078;2023-01-27T04:35:45;102002.97;;;2.86;100.00
50103;BME280;35993;52.604;10.078;2023-01-27T04:38:11;102008.47;;;2.85;100.00
50103;BME280;35993;52.604;10.078;2023-01-27T04:40:38;102016.13;;;2.89;100.00
50103;BME280;35993;52.604;10.078;2023-01-27T04:43:03;102009.78;;;2.90;100.00
50103;BME280;35993;52.604;10.078;2023-01-27T04:45:31;102011.72;;;2.88;100.00
50103;BME280;35993;52.604;10.078;2023-01-27T04:47:56;102011.88;;;2.87;100.00
50103;BME280;35993;52.604;10.078;2023-01-27T04:50:22;102010.75;;;2.89;100.00
50103;BME280;35993;52.604;10.078;2023-01-27T04:52:47;102019.78;;;2.88;100.00
50103;BME280;35993;52.604;10.078;2023-01-27T04:55:13;102018.66;;;2.91;100.00
50103;BME280;35993;52.604;10.078;2023-01-27T04:57:39;102023.03;;;2.92;100.00
50103;BME280;35993;52.604;10.078;2023-01-27T05:00:05;102017.69;;;2.92;100.00
50103;BME280;35993;52.604;10.078;2023-01-27T05:02:31;102026.41;;;2.94;100.00
50103;BME280;35993;52.604;10.078;2023-01-27T05:04:56;102024.59;;;2.94;100.00
50103;BME280;35993;52.604;10.078;2023-01-27T05:07:22;102036.91;;;2.97;100.00
50103;BME280;35993;52.604;10.078;2023-01-27T05:09:48;102035.94;;;2.98;100.00
50103;BME280;35993;52.604;10.078;2023-01-27T05:12:14;102034.06;;;2.99;100.00
50103;BME280;35993;52.604;10.078;2023-01-27T05:14:40;102037.03;;;2.95;100.00
50103;BME280;35993;52.604;10.078;2023-01-27T05:17:05;102042.97;;;2.99;100.00
50103;BME280;35993;52.604;10.078;2023-01-27T05:19:31;102045.53;;;3.01;100.00
50103;BME280;35993;52.604;10.078;2023-01-27T05:21:56;102048.47;;;2.98;100.00
50103;BME280;35993;52.604;10.078;2023-01-27T05:24:22;102046.75;;;2.97;100.00
50103;BME280;35993;52.604;10.078;2023-01-27T05:26:47;102049.34;;;2.98;100.00
50103;BME280;35993;52.604;10.078;2023-01-27T05:29:13;102062.75;;;2.98;100.00
50103;BME280;35993;52.604;10.078;2023-01-27T05:31:39;102056.66;;;2.96;100.00
50103;BME280;35993;52.604;10.078;2023-01-27T05:34:04;102056.94;;;2.93;100.00
50103;BME280;35993;52.604;10.078;2023-01-27T05:36:30;102060.47;;;2.93;100.00
50103;BME280;35993;52.604;10.078;2023-01-27T05:38:58;102071.78;;;2.97;100.00
50103;BME280;35993;52.604;10.078;2023-01-27T05:41:24;102069.22;;;2.95;100.00
50103;BME280;35993;52.604;10.078;2023-01-27T05:43:51;102070.22;;;2.94;100.00
50103;BME280;35993;52.604;10.078;2023-01-27T05:46:19;102065.69;;;2.95;100.00
50103;BME280;35993;52.604;10.078;2023-01-27T05:48:50;102075.72;;;2.93;100.00
50103;BME280;35993;52.604;10.078;2023-01-27T05:51:19;102074.84;;;2.92;100.00
50103;BME280;35993;52.604;10.078;2023-01-27T05:53:45;102077.66;;;2.91;100.00
50103;BME280;35993;52.604;10.078;2023-01-27T05:56:12;102086.56;;;2.91;100.00
50103;BME280;35993;52.604;10.078;2023-01-27T05:58:38;102079.50;;;2.90;100.00
50103;BME280;35993;52.604;10.078;2023-01-27T06:01:07;102090.25;;;2.90;100.00
50103;BME280;35993;52.604;10.078;2023-01-27T06:03:34;102088.41;;;2.91;100.00
50103;BME280;35993;52.604;10.078;2023-01-27T06:05:59;102086.00;;;2.88;100.00
50103;BME280;35993;52.604;10.078;2023-01-27T06:08:25;102088.78;;;2.86;100.00
50103;BME280;35993;52.604;10.078;2023-01-27T06:10:51;102095.16;;;2.85;100.00
50103;BME280;35993;52.604;10.078;2023-01-27T06:13:20;102092.84;;;2.81;100.00
50103;BME280;35993;52.604;10.078;2023-01-27T06:15:47;102097.25;;;2.82;100.00
50103;BME280;35993;52.604;10.078;2023-01-27T06:18:13;102094.69;;;2.80;100.00
50103;BME280;35993;52.604;10.078;2023-01-27T06:20:40;102098.59;;;2.76;100.00
50103;BME280;35993;52.604;10.078;2023-01-27T06:23:07;102100.59;;;2.74;100.00
50103;BME280;35993;52.604;10.078;2023-01-27T06:25:45;102096.34;;;2.71;100.00
50103;BME280;35993;52.604;10.078;2023-01-27T06:28:11;102100.13;;;2.69;100.00
50103;BME280;35993;52.604;10.078;2023-01-27T06:30:38;102103.66;;;2.69;100.00
50103;BME280;35993;52.604;10.078;2023-01-27T06:33:04;102102.91;;;2.67;100.00
50103;BME280;35993;52.604;10.078;2023-01-27T06:35:30;102098.56;;;2.66;100.00
50103;BME280;35993;52.604;10.078;2023-01-27T06:37:57;102104.75;;;2.67;100.00
50103;BME280;35993;52.604;10.078;2023-01-27T06:40:24;102106.47;;;2.68;100.00
50103;BME280;35993;52.604;10.078;2023-01-27T06:42:50;102098.44;;;2.68;100.00
50103;BME280;35993;52.604;10.078;2023-01-27T06:45:15;102112.81;;;2.67;100.00
50103;BME280;35993;52.604;10.078;2023-01-27T06:47:41;102114.38;;;2.69;100.00
50103;BME280;35993;52.604;10.078;2023-01-27T06:50:08;102116.31;;;2.67;100.00
50103;BME280;35993;52.604;10.078;2023-01-27T06:52:34;102119.16;;;2.66;100.00
50103;BME280;35993;52.604;10.078;2023-01-27T06:55:00;102125.47;;;2.65;100.00
50103;BME280;35993;52.604;10.078;2023-01-27T06:57:26;102125.47;;;2.65;100.00
50103;BME280;35993;52.604;10.078;2023-01-27T06:59:51;102122.81;;;2.65;100.00
50103;BME280;35993;52.604;10.078;2023-01-27T07:02:17;102133.53;;;2.65;100.00
50103;BME280;35993;52.604;10.078;2023-01-27T07:04:42;102136.22;;;2.65;100.00
50103;BME280;35993;52.604;10.078;2023-01-27T07:07:08;102129.88;;;2.66;100.00
50103;BME280;35993;52.604;10.078;2023-01-27T07:09:33;102141.47;;;2.66;100.00
50103;BME280;35993;52.604;10.078;2023-01-27T07:11:59;102136.34;;;2.63;100.00
50103;BME280;35993;52.604;10.078;2023-01-27T07:14:24;102143.56;;;2.62;100.00
50103;BME280;35993;52.604;10.078;2023-01-27T07:16:50;102143.56;;;2.62;100.00
50103;BME280;35993;52.604;10.078;2023-01-27T07:19:15;102156.81;;;2.64;100.00
50103;BME280;35993;52.604;10.078;2023-01-27T07:21:42;102147.81;;;2.65;100.00
50103;BME280;35993;52.604;10.078;2023-01-27T07:24:07;102151.47;;;2.64;100.00
50103;BME280;35993;52.604;10.078;2023-01-27T07:26:33;102168.50;;;2.63;100.00
50103;BME280;35993;52.604;10.078;2023-01-27T07:28:59;102168.66;;;2.61;100.00
50103;BME280;35993;52.604;10.078;2023-01-27T07:31:24;102174.00;;;2.61;100.00
50103;BME280;35993;52.604;10.078;2023-01-27T07:33:51;102172.06;;;2.64;100.00
50103;BME280;35993;52.604;10.078;2023-01-27T07:36:17;102173.03;;;2.62;100.00
50103;BME280;35993;52.604;10.078;2023-01-27T07:38:43;102178.41;;;2.62;100.00
50103;BME280;35993;52.604;10.078;2023-01-27T07:41:08;102176.69;;;2.61;100.00
50103;BME280;35993;52.604;10.078;2023-01-27T07:43:34;102178.66;;;2.59;100.00
50103;BME280;35993;52.604;10.078;2023-01-27T07:45:59;102191.06;;;2.60;100.00
50103;BME280;35993;52.604;10.078;2023-01-27T07:48:26;102183.91;;;2.61;100.00
50103;BME280;35993;52.604;10.078;2023-01-27T07:50:52;102188.53;;;2.59;100.00
50103;BME280;35993;52.604;10.078;2023-01-27T07:53:17;102188.53;;;2.59;100.00
50103;BME280;35993;52.604;10.078;2023-01-27T07:55:43;102192.03;;;2.59;100.00
50103;BME280;35993;52.604;10.078;2023-01-27T07:58:08;102204.47;;;2.60;100.00
50103;BME280;35993;52.604;10.078;2023-01-27T08:00:34;102207.03;;;2.62;100.00
50103;BME280;35993;52.604;10.078;2023-01-27T08:03:01;102202.53;;;2.62;100.00
50103;BME280;35993;52.604;10.078;2023-01-27T08:05:30;102204.34;;;2.62;100.00
50103;BME280;35993;52.604;10.078;2023-01-27T08:07:56;102212.78;;;2.57;100.00
50103;BME280;35993;52.604;10.078;2023-01-27T08:10:22;102211.69;;;2.60;100.00
50103;BME280;35993;52.604;10.078;2023-01-27T08:12:48;102214.38;;;2.60;100.00
50103;BME280;35993;52.604;10.078;2023-01-27T08:15:14;102214.22;;;2.61;100.00
50103;BME280;35993;52.604;10.078;2023-01-27T08:17:40;102221.53;;;2.59;100.00
50103;BME280;35993;52.604;10.078;2023-01-27T08:20:06;102223.13;;;2.62;100.00
50103;BME280;35993;52.604;10.078;2023-01-27T08:22:32;102232.03;;;2.62;100.00
50103;BME280;35993;52.604;10.078;2023-01-27T08:24:58;102236.41;;;2.64;100.00
50103;BME280;35993;52.604;10.078;2023-01-27T08:27:23;102234.84;;;2.61;100.00
50103;BME280;35993;52.604;10.078;2023-01-27T08:29:49;102238.22;;;2.63;100.00
50103;BME280;35993;52.604;10.078;2023-01-27T08:32:14;102242.50;;;2.66;100.00
50103;BME280;35993;52.604;10.078;2023-01-27T08:34:40;102232.63;;;2.66;100.00
50103;BME280;35993;52.604;10.078;2023-01-27T08:37:06;102242.50;;;2.66;100.00
50103;BME280;35993;52.604;10.078;2023-01-27T08:39:32;102237.13;;;2.66;100.00
50103;BME280;35993;52.604;10.078;2023-01-27T08:41:58;102238.00;;;2.66;100.00
50103;BME280;35993;52.604;10.078;2023-01-27T08:44:23;102229.81;;;2.68;100.00
50103;BME280;35993;52.604;10.078;2023-01-27T08:46:49;102239.56;;;2.69;100.00
50103;BME280;35993;52.604;10.078;2023-01-27T08:49:15;102243.09;;;2.69;100.00
50103;BME280;35993;52.604;10.078;2023-01-27T08:51:41;102246.09;;;2.76;100.00
50103;BME280;35993;52.604;10.078;2023-01-27T08:54:08;102244.28;;;2.76;100.00
50103;BME280;35993;52.604;10.078;2023-01-27T08:56:34;102249.53;;;2.78;100.00
50103;BME280;35993;52.604;10.078;2023-01-27T08:58:59;102249.38;;;2.79;100.00
50103;BME280;35993;52.604;10.078;2023-01-27T09:01:25;102244.03;;;2.79;100.00
50103;BME280;35993;52.604;10.078;2023-01-27T09:03:51;102249.16;;;2.83;100.00
50103;BME280;35993;52.604;10.078;2023-01-27T09:06:17;102257.06;;;2.84;100.00
50103;BME280;35993;52.604;10.078;2023-01-27T09:08:44;102252.53;;;2.85;100.00
50103;BME280;35993;52.604;10.078;2023-01-27T09:11:30;102260.84;;;2.82;100.00
50103;BME280;35993;52.604;10.078;2023-01-27T09:13:55;102261.69;;;2.82;100.00
50103;BME280;35993;52.604;10.078;2023-01-27T09:16:21;102260.59;;;2.85;100.00
50103;BME280;35993;52.604;10.078;2023-01-27T09:18:46;102265.25;;;2.83;100.00
50103;BME280;35993;52.604;10.078;2023-01-27T09:21:12;102262.44;;;2.84;100.00
50103;BME280;35993;52.604;10.078;2023-01-27T09:23:37;102267.53;;;2.87;100.00
50103;BME280;35993;52.604;10.078;2023-01-27T09:26:03;102267.53;;;2.87;100.00
50103;BME280;35993;52.604;10.078;2023-01-27T09:28:28;102272.06;;;2.87;100.00
50103;BME280;35993;52.604;10.078;2023-01-27T09:30:57;102271.66;;;2.91;100.00
50103;BME280;35993;52.604;10.078;2023-01-27T09:33:23;102268.84;;;2.93;100.00
50103;BME280;35993;52.604;10.078;2023-01-27T09:36:00;102276.91;;;2.93;100.00
50103;BME280;35993;52.604;10.078;2023-01-27T09:38:29;102268.00;;;2.92;100.00
50103;BME280;35993;52.604;10.078;2023-01-27T09:46:44;102267.28;;;2.90;100.00
50103;BME280;35993;52.604;10.078;2023-01-27T10:03:09;102279.47;;;2.94;100.00
50103;BME280;35993;52.604;10.078;2023-01-27T10:05:52;102276.78;;;2.94;100.00
50103;BME280;35993;52.604;10.078;2023-01-27T10:11:42;102274.09;;;2.94;100.00
50103;BME280;35993;52.604;10.078;2023-01-27T10:14:18;102273.22;;;2.94;100.00
50103;BME280;35993;52.604;10.078;2023-01-27T10:17:13;102274.31;;;2.91;100.00
50103;BME280;35993;52.604;10.078;2023-01-27T10:27:46;102277.88;;;2.92;100.00
50103;BME280;35993;52.604;10.078;2023-01-27T10:30:12;102283.94;;;2.94;100.00
50103;BME280;35993;52.604;10.078;2023-01-27T10:32:53;102297.13;;;2.97;100.00
50103;BME280;35993;52.604;10.078;2023-01-27T10:35:32;102286.63;;;2.94;100.00
50103;BME280;35993;52.604;10.078;2023-01-27T10:38:23;102290.44;;;2.91;100.00
50103;BME280;35993;52.604;10.078;2023-01-27T10:43:55;102302.63;;;2.95;100.00
50103;BME280;35993;52.604;10.078;2023-01-27T10:49:33;102300.31;;;2.91;100.00
50103;BME280;35993;52.604;10.078;2023-01-27T10:52:13;102303.00;;;2.91;100.00
50103;BME280;35993;52.604;10.078;2023-01-27T10:54:50;102301.75;;;2.95;100.00
50103;BME280;35993;52.604;10.078;2023-01-27T10:57:29;102302.03;;;2.92;100.00
50103;BME280;35993;52.604;10.078;2023-01-27T11:00:33;102295.94;;;2.90;100.00
50103;BME280;35993;52.604;10.078;2023-01-27T11:03:06;102295.56;;;2.94;100.00
50103;BME280;35993;52.604;10.078;2023-01-27T11:05:38;102295.56;;;2.94;100.00
50103;BME280;35993;52.604;10.078;2023-01-27T11:08:11;102293.00;;;2.93;100.00
50103;BME280;35993;52.604;10.078;2023-01-27T11:10:41;102299.22;;;2.93;100.00
50103;BME280;35993;52.604;10.078;2023-01-27T11:13:30;102292.88;;;2.94;100.00
50103;BME280;35993;52.604;10.078;2023-01-27T11:15:57;102290.19;;;2.94;100.00
50103;BME280;35993;52.604;10.078;2023-01-27T11:18:27;102305.31;;;2.95;100.00
50103;BME280;35993;52.604;10.078;2023-01-27T11:21:14;102286.91;;;2.91;100.00
50103;BME280;35993;52.604;10.078;2023-01-27T11:23:47;102288.47;;;2.93;100.00
50103;BME280;35993;52.604;10.078;2023-01-27T11:26:26;102297.13;;;2.97;100.00
50103;BME280;35993;52.604;10.078;2023-01-27T11:32:00;102296.72;;;3.02;100.00
50103;BME280;35993;52.604;10.078;2023-01-27T11:35:01;102294.03;;;3.02;100.00
50103;BME280;35993;52.604;10.078;2023-01-27T11:37:33;102291.25;;;3.03;100.00
50103;BME280;35993;52.604;10.078;2023-01-27T11:40:00;102289.28;;;3.05;100.00
50103;BME280;35993;52.604;10.078;2023-01-27T11:42:30;102290.59;;;3.11;100.00
50103;BME280;35993;52.604;10.078;2023-01-27T11:44:58;102293.28;;;3.11;100.00
50103;BME280;35993;52.604;10.078;2023-01-27T11:47:31;102291.59;;;3.10;100.00
50103;BME280;35993;52.604;10.078;2023-01-27T11:49:59;102285.75;;;3.05;100.00
50103;BME280;35993;52.604;10.078;2023-01-27T11:52:26;102281.38;;;3.04;100.00
50103;BME280;35993;52.604;10.078;2023-01-27T11:55:14;102281.03;;;2.97;100.00
50103;BME280;35993;52.604;10.078;2023-01-27T11:57:42;102281.28;;;2.94;100.00
50103;BME280;35993;52.604;10.078;2023-01-27T12:00:21;102273.50;;;2.91;100.00
50103;BME280;35993;52.604;10.078;2023-01-27T12:02:57;102264.72;;;2.89;100.00
50103;BME280;35993;52.604;10.078;2023-01-27T12:05:31;102268.72;;;2.94;100.00
50103;BME280;35993;52.604;10.078;2023-01-27T12:08:00;102284.81;;;2.94;100.00
50103;BME280;35993;52.604;10.078;2023-01-27T12:10:33;102268.72;;;2.94;100.00
50103;BME280;35993;52.604;10.078;2023-01-27T12:13:06;102278.72;;;2.92;100.00
50103;BME280;35993;52.604;10.078;2023-01-27T12:15:33;102270.22;;;2.87;100.00
50103;BME280;35993;52.604;10.078;2023-01-27T12:18:07;102270.34;;;2.86;100.00
50103;BME280;35993;52.604;10.078;2023-01-27T12:20:38;102279.22;;;2.86;100.00
50103;BME280;35993;52.604;10.078;2023-01-27T12:25:54;102270.34;;;2.86;100.00
50103;BME280;35993;52.604;10.078;2023-01-27T12:28:24;102275.19;;;2.92;100.00
50103;BME280;35993;52.604;10.078;2023-01-27T12:30:53;102273.81;;;2.98;100.00
50103;BME280;35993;52.604;10.078;2023-01-27T12:33:27;102273.59;;;3.01;100.00
50103;BME280;35993;52.604;10.078;2023-01-27T12:35:58;102268.72;;;2.94;100.00
50103;BME280;35993;52.604;10.078;2023-01-27T12:38:27;102271.00;;;2.99;100.00
50103;BME280;35993;52.604;10.078;2023-01-27T12:40:59;102266.75;;;2.97;100.00
50103;BME280;35993;52.604;10.078;2023-01-27T12:43:26;102271.53;;;2.93;100.00
50103;BME280;35993;52.604;10.078;2023-01-27T12:48:44;102265.94;;;2.85;100.00
50103;BME280;35993;52.604;10.078;2023-01-27T12:53:40;102275.47;;;2.77;100.00
50103;BME280;35993;52.604;10.078;2023-01-27T12:56:11;102265.94;;;2.85;100.00
50103;BME280;35993;52.604;10.078;2023-01-27T12:58:40;102270.81;;;2.91;100.00
50103;BME280;35993;52.604;10.078;2023-01-27T13:03:43;102263.50;;;2.93;100.00
50103;BME280;35993;52.604;10.078;2023-01-27T13:06:14;102270.53;;;2.94;100.00
50103;BME280;35993;52.604;10.078;2023-01-27T13:08:40;102262.50;;;2.94;100.00
50103;BME280;35993;52.604;10.078;2023-01-27T13:11:06;102274.09;;;2.94;100.00
50103;BME280;35993;52.604;10.078;2023-01-27T13:13:32;102266.19;;;2.93;100.00
50103;BME280;35993;52.604;10.078;2023-01-27T13:16:04;102269.09;;;2.90;100.00
50103;BME280;35993;52.604;10.078;2023-01-27T13:18:35;102274.47;;;2.90;100.00
50103;BME280;35993;52.604;10.078;2023-01-27T13:21:12;102266.09;;;2.83;100.00
50103;BME280;35993;52.604;10.078;2023-01-27T13:23:39;102278.06;;;2.79;100.00
50103;BME280;35993;52.604;10.078;2023-01-27T13:31:06;102275.75;;;2.74;100.00
50103;BME280;35993;52.604;10.078;2023-01-27T13:33:45;102270.00;;;2.79;100.00
50103;BME280;35993;52.604;10.078;2023-01-27T13:36:53;102273.78;;;2.76;100.00
50103;BME280;35993;52.604;10.078;2023-01-27T13:44:39;102268.03;;;2.81;100.00
50103;BME280;35993;52.604;10.078;2023-01-27T13:47:15;102264.66;;;2.79;100.00
50103;BME280;35993;52.604;10.078;2023-01-27T13:49:51;102275.72;;;2.86;100.00
50103;BME280;35993;52.604;10.078;2023-01-27T13:52:17;102276.53;;;2.86;100.00
50103;BME280;35993;52.604;10.078;2023-01-27T13:54:43;102275.34;;;2.90;100.00